Vision of The Seas — C6SE8 — position and weather

sailwx.info

Track history (hours):
 
Tides and Currents Weather Stations Pressure Air Temp Water Temp Dewpoint Dewpoint Depression Visibility Wind Speed Wind Dir Waves Ship Positions

Vision of The Seas

Operator: Royal Caribbean Cruises Ltd

Last reported at 2019-Jul-16 01:00 UTC. Time now 2019-Jul-16 10:07 UTC.
Position N 37°24' E 011°00'.

Type: Passenger vessel. MMSI: 311321000.

Wind from 290 at 32 knots

Barometer 1007.0 mb
Air temperature 24.0 ° C
Visibility: greater than 10.8 NM
Dewpoint 22.6 ° C

Date/timePositionNaut miles runAvg speedWind from/ knotsBaromVisibWave heightAir tempDewpointWater temp
2019-Jul-16 01:00N 37°24' E 011°00'6120.2 290 / 321007.010.8 24.022.6
2019-Jul-15 22:00N 36°54' E 012°06'225 9.0 300 / 261008.010.8 24.021.125.0
2019-Jul-14 21:00N 35°54' E 016°36'25814.3 120 / 101010.010.8 24.021.1
2019-Jul-14 03:00N 36°00' E 021°54'12712.7 300 / 181006.010.8 23.021.6
2019-Jul-13 17:00N 36°12' E 024°30'11 0.7 210 / 81010.027.0 25.022.2
2019-Jul-13 00:00N 36°18' E 024°42'43 8.6 240 / 81012.010.8 23.021.6
2019-Jul-12 19:00N 37°00' E 024°54'638.5 290 / 51012.010.8 24.021.1
2019-Jul-12 18:49N 37°06' E 024°56'3 9.1
2019-Jul-12 18:30N 37°09' E 024°58'5 9.6
2019-Jul-12 18:00N 37°13' E 025°01'5 9.5
2019-Jul-12 17:28N 37°17' E 025°04'4 9.4
2019-Jul-12 17:00N 37°21' E 025°06'5 9.5
2019-Jul-12 16:30N 37°25' E 025°09'4 9.1
2019-Jul-12 16:00N 37°28' E 025°14'4 8.2
2019-Jul-12 15:30N 37°27' E 025°19'0 0.5
2019-Jul-12 14:56N 37°28' E 025°19'0 0.0
2019-Jul-12 14:26N 37°28' E 025°19'0 0.0
2019-Jul-12 13:59N 37°28' E 025°19'0 0.0
2019-Jul-12 13:14N 37°28' E 025°19'0 0.0
2019-Jul-12 12:59N 37°28' E 025°19'0 0.0
2019-Jul-12 12:05N 37°28' E 025°19'0 0.0
2019-Jul-12 11:56N 37°28' E 025°19'0 0.0
2019-Jul-12 11:20N 37°28' E 025°19'0 0.0
2019-Jul-12 10:59N 37°28' E 025°19'0 0.0
2019-Jul-12 10:29N 37°28' E 025°19'0 0.0
2019-Jul-12 09:59N 37°28' E 025°19'0 0.0
2019-Jul-12 09:23N 37°28' E 025°19'0 0.0
2019-Jul-12 08:59N 37°28' E 025°19'0 0.0
2019-Jul-12 08:05N 37°28' E 025°19'0 0.0
2019-Jul-12 07:14N 37°28' E 025°19'0 0.0
2019-Jul-12 06:56N 37°28' E 025°19'0 0.0
2019-Jul-12 06:26N 37°28' E 025°19'0 0.0
2019-Jul-12 05:23N 37°28' E 025°19'0 0.0
2019-Jul-12 04:53N 37°28' E 025°19'0 0.0
2019-Jul-12 04:17N 37°28' E 025°19'0 0.0
2019-Jul-12 03:59N 37°28' E 025°19'0 0.0
2019-Jul-12 03:29N 37°28' E 025°19'0 0.0
2019-Jul-12 03:01N 37°28' E 025°19'2 3.3
2019-Jul-12 02:30N 37°28' E 025°17'1511.9
2019-Jul-12 01:17N 37°20' E 025°02'413.4
2019-Jul-12 01:00N 37°19' E 024°57'612.6
2019-Jul-12 00:30N 37°18' E 024°49'56 8.7
2019-Jul-11 18:01N 37°38' E 023°43'013.6
2019-Jul-11 18:00N 37°38' E 023°43'612.9
2019-Jul-11 17:30N 37°44' E 023°39'612.8
2019-Jul-11 17:00N 37°50' E 023°37'612.2
2019-Jul-11 16:30N 37°56' E 023°37'1 1.9
2019-Jul-11 15:57N 37°56' E 023°38'0 0.0
2019-Jul-11 15:27N 37°56' E 023°38'0 0.0
2019-Jul-11 15:00N 37°56' E 023°38'0 0.0
2019-Jul-11 14:30N 37°56' E 023°38'0 0.0
2019-Jul-11 13:54N 37°56' E 023°38'0 0.0
2019-Jul-11 13:30N 37°56' E 023°38'0 0.0
2019-Jul-11 12:54N 37°56' E 023°38'0 0.0
2019-Jul-11 12:27N 37°56' E 023°38'0 0.0
2019-Jul-11 12:00N 37°56' E 023°38'0 0.0
2019-Jul-11 11:24N 37°56' E 023°38'0 0.0
2019-Jul-11 10:51N 37°56' E 023°38'0 0.0
2019-Jul-11 10:27N 37°56' E 023°38'0 0.0
2019-Jul-11 09:57N 37°56' E 023°38'0 0.0
2019-Jul-11 09:30N 37°56' E 023°38'0 0.0
2019-Jul-11 09:00N 37°56' E 023°38'0 0.0
2019-Jul-11 08:30N 37°56' E 023°38'0 0.0
2019-Jul-11 08:00N 37°56' E 023°38'0 0.0
2019-Jul-11 07:30N 37°56' E 023°38'0 0.0
2019-Jul-11 07:00N 37°56' E 023°38'0 0.0
2019-Jul-11 06:30N 37°56' E 023°38'0 0.0
2019-Jul-11 06:00N 37°56' E 023°38'0 0.0
2019-Jul-11 05:30N 37°56' E 023°38'0 0.0
2019-Jul-11 05:00N 37°56' E 023°38'0 0.0
2019-Jul-11 04:30N 37°56' E 023°38'0 0.0
2019-Jul-11 04:00N 37°56' E 023°38'0 0.0
2019-Jul-11 03:30N 37°56' E 023°38'0 0.0
2019-Jul-11 03:00N 37°56' E 023°38'0 0.0
2019-Jul-11 02:30N 37°56' E 023°38'0 0.2
2019-Jul-11 02:00N 37°56' E 023°38'2 4.4
2019-Jul-11 01:30N 37°55' E 023°36'611.8
2019-Jul-11 01:00N 37°50' E 023°40'714.2
2019-Jul-11 00:31N 37°43' E 023°43'713.9
2019-Jul-11 00:00N 37°36' E 023°46'714.4
2019-Jul-10 23:30N 37°29' E 023°46'714.9
2019-Jul-10 23:00N 37°22' E 023°44'4260.9
2019-Jul-10 23:00N 37°18' E 023°42'3 7.0 270 / 61004.010.8 25.023.6
2019-Jul-10 22:30N 37°15' E 023°43'714.1
2019-Jul-10 22:00N 37°08' E 023°41'714.3
2019-Jul-10 21:31N 37°01' E 023°38'714.7
2019-Jul-10 21:01N 36°54' E 023°35'714.5
2019-Jul-10 20:30N 36°48' E 023°31'714.3
2019-Jul-10 20:00N 36°41' E 023°28'714.3
2019-Jul-10 19:30N 36°34' E 023°25'713.9
2019-Jul-10 19:00N 36°28' E 023°21'38014.0
2019-Jul-09 15:47N 37°54' E 015°37'413.6
2019-Jul-09 15:30N 37°58' E 015°35'714.0
2019-Jul-09 15:01N 38°05' E 015°35'815.0
2019-Jul-09 14:30N 38°13' E 015°36'713.9
2019-Jul-09 14:01N 38°18' E 015°40'815.1
2019-Jul-09 13:31N 38°25' E 015°36'815.1
2019-Jul-09 13:01N 38°32' E 015°32'714.9
2019-Jul-09 12:31N 38°38' E 015°27'714.9
2019-Jul-09 12:01N 38°45' E 015°23'714.9
2019-Jul-09 11:31N 38°51' E 015°18'814.9
2019-Jul-09 10:59N 38°57' E 015°11'6714.6
2019-Jul-09 06:27N 39°44' E 014°10'614.3
2019-Jul-09 06:01N 39°48' E 014°04'714.3
2019-Jul-09 05:30N 39°53' E 013°57'714.2
2019-Jul-09 05:00N 39°58' E 013°50'714.4
2019-Jul-09 04:31N 40°03' E 013°44'714.5
2019-Jul-09 04:00N 40°08' E 013°37'714.6
2019-Jul-09 03:31N 40°14' E 013°31'714.7
2019-Jul-09 03:00N 40°19' E 013°24'714.8
2019-Jul-09 02:30N 40°24' E 013°17'714.8
2019-Jul-09 02:00N 40°29' E 013°10'3201.7
2019-Jul-09 02:00N 40°30' E 013°06'510.1 200 / 71013.010.8 26.024.6
2019-Jul-09 01:30N 40°35' E 013°03'714.6
2019-Jul-09 01:00N 40°40' E 012°56'714.6
2019-Jul-09 00:31N 40°45' E 012°50'714.5
2019-Jul-09 00:01N 40°51' E 012°44'714.6
2019-Jul-08 23:30N 40°56' E 012°38'714.6
2019-Jul-08 23:00N 41°02' E 012°32'714.6
2019-Jul-08 22:30N 41°08' E 012°26'714.7
2019-Jul-08 22:00N 41°14' E 012°21'1014.7
2019-Jul-08 21:19N 41°22' E 012°12'3015.0
2019-Jul-08 19:18N 41°48' E 011°51'914.6
2019-Jul-08 18:40N 41°56' E 011°46'39 2.3
2019-Jul-08 02:00N 42°00' E 010°54'2 6.5 360 / 51015.010.8 25.023.6
2019-Jul-08 01:43N 42°01' E 010°53'517.4
2019-Jul-08 01:25N 42°06' E 010°48'1217.5
2019-Jul-08 00:45N 42°15' E 010°39'717.4
2019-Jul-08 00:20N 42°21' E 010°33'2017.2
2019-Jul-07 23:12N 42°36' E 010°17'317.2
2019-Jul-07 23:00N 42°38' E 010°13'917.1
2019-Jul-07 22:30N 42°43' E 010°03'1917.2
2019-Jul-07 21:24N 43°01' E 009°59'1117.3
2019-Jul-07 20:46N 43°12' E 009°54'517.8
2019-Jul-07 20:30N 43°15' E 009°50'917.7
2019-Jul-07 20:00N 43°23' E 009°44'917.5
2019-Jul-07 19:30N 43°32' E 009°45'917.9
2019-Jul-07 19:00N 43°40' E 009°48'917.8
2019-Jul-07 18:30N 43°49' E 009°50'917.8
2019-Jul-07 18:00N 43°58' E 009°52'713.6
2019-Jul-07 17:30N 44°05' E 009°51'2 3.5
2019-Jul-07 17:00N 44°06' E 009°50'0 0.0
2019-Jul-07 16:30N 44°06' E 009°50'0 0.0
2019-Jul-07 16:00N 44°06' E 009°50'0 0.0
2019-Jul-07 15:30N 44°06' E 009°50'0 0.0
2019-Jul-07 15:00N 44°06' E 009°50'0 0.0
2019-Jul-07 14:30N 44°06' E 009°50'0 0.0
2019-Jul-07 14:00N 44°06' E 009°50'0 0.0
2019-Jul-07 13:30N 44°06' E 009°50'0 0.0
2019-Jul-07 13:00N 44°06' E 009°50'0 0.0
2019-Jul-07 12:30N 44°06' E 009°50'0 0.0
2019-Jul-07 12:00N 44°06' E 009°50'0 0.0
2019-Jul-07 11:30N 44°06' E 009°50'0 0.0
2019-Jul-07 11:00N 44°06' E 009°50'0 0.0
2019-Jul-07 10:30N 44°06' E 009°50'0 0.0
2019-Jul-07 10:00N 44°06' E 009°50'0 0.0
2019-Jul-07 09:30N 44°06' E 009°50'0 0.0
2019-Jul-07 09:00N 44°06' E 009°50'0 0.0
2019-Jul-07 08:30N 44°06' E 009°50'0 0.0
2019-Jul-07 08:00N 44°06' E 009°50'0 0.0
2019-Jul-07 07:30N 44°06' E 009°50'0 0.0
2019-Jul-07 07:00N 44°06' E 009°50'0 0.0
2019-Jul-07 06:30N 44°06' E 009°50'0 0.0
2019-Jul-07 06:00N 44°06' E 009°50'0 0.0
2019-Jul-07 05:30N 44°06' E 009°50'0 0.0
2019-Jul-07 05:00N 44°06' E 009°50'0 0.1
2019-Jul-07 04:30N 44°06' E 009°50'4 7.7
2019-Jul-07 04:00N 44°03' E 009°52'5 9.5
2019-Jul-07 03:30N 43°59' E 009°55'612.6
2019-Jul-07 03:00N 43°57' E 009°47'1313.1
2019-Jul-07 02:00N 43°52' E 009°30'713.1
2019-Jul-07 01:30N 43°50' E 009°22'713.0
2019-Jul-07 01:00N 43°48' E 009°13'713.2
2019-Jul-07 00:30N 43°46' E 009°04'713.2
2019-Jul-07 00:00N 43°44' E 008°55'713.2
2019-Jul-06 23:30N 43°42' E 008°47'713.3
2019-Jul-06 23:00N 43°41' E 008°38'713.2
2019-Jul-06 22:30N 43°39' E 008°29'913.1
2019-Jul-06 21:47N 43°37' E 008°16'413.0
2019-Jul-06 21:30N 43°36' E 008°11'612.9
2019-Jul-06 21:00N 43°34' E 008°03'612.9
2019-Jul-06 20:30N 43°33' E 007°54'612.8
2019-Jul-06 20:00N 43°31' E 007°46'612.6
2019-Jul-06 19:30N 43°29' E 007°37'612.8
2019-Jul-06 19:00N 43°29' E 007°28'713.3
2019-Jul-06 18:30N 43°29' E 007°19'713.5
2019-Jul-06 18:00N 43°29' E 007°10'713.4
2019-Jul-06 17:30N 43°30' E 007°01'2 4.4
2019-Jul-06 17:00N 43°32' E 007°01'0 0.2
2019-Jul-06 16:28N 43°32' E 007°01'0 0.0
2019-Jul-06 15:58N 43°32' E 007°01'0 0.0
2019-Jul-06 15:28N 43°32' E 007°01'0 0.0
2019-Jul-06 14:58N 43°32' E 007°01'0 0.0
2019-Jul-06 14:28N 43°32' E 007°01'0 0.0
2019-Jul-06 13:58N 43°32' E 007°01'0 0.0
2019-Jul-06 13:28N 43°32' E 007°01'0 0.0
2019-Jul-06 12:58N 43°32' E 007°01'0 0.0
2019-Jul-06 12:28N 43°32' E 007°01'0 0.0
2019-Jul-06 11:58N 43°32' E 007°01'0 0.1
2019-Jul-06 11:25N 43°32' E 007°01'0 0.0
2019-Jul-06 10:58N 43°32' E 007°01'0 0.0
2019-Jul-06 10:28N 43°32' E 007°01'0 0.1
2019-Jul-06 09:58N 43°32' E 007°01'0 0.1
2019-Jul-06 09:28N 43°32' E 007°01'0 0.0
2019-Jul-06 08:58N 43°32' E 007°01'0 0.0
2019-Jul-06 08:25N 43°32' E 007°01'0 0.0
2019-Jul-06 07:58N 43°32' E 007°01'0 0.1
2019-Jul-06 07:25N 43°32' E 007°01'0 0.0
2019-Jul-06 06:58N 43°32' E 007°01'0 0.0
2019-Jul-06 06:28N 43°32' E 007°01'0 0.1
2019-Jul-06 05:58N 43°32' E 007°01'3 5.8
2019-Jul-06 05:30N 43°29' E 006°60'918.9
2019-Jul-06 05:01N 43°21' E 006°55'1020.4
2019-Jul-06 04:31N 43°12' E 006°48'1020.7
2019-Jul-06 04:00N 43°04' E 006°38'1020.4
2019-Jul-06 03:30N 42°58' E 006°27'1620.6
2019-Jul-06 02:44N 42°50' E 006°09'520.6
2019-Jul-06 02:30N 42°46' E 006°04'  
Track history (hours):
 
Tides and Currents Weather Stations Pressure Air Temp Water Temp Dewpoint Dewpoint Depression Visibility Wind Speed Wind Dir Waves Ship Positions

Vision of The Seas

Operator: Royal Caribbean Cruises Ltd

Last reported at 2019-Jul-16 01:00 UTC. Time now 2019-Jul-16 10:07 UTC.
Position N 37°24' E 011°00'.

Type: Passenger vessel. MMSI: 311321000.

Wind from 290 at 32 knots

Barometer 1007.0 mb
Air temperature 24.0 ° C
Visibility: greater than 10.8 NM
Dewpoint 22.6 ° C

Date/timePositionNaut miles runAvg speedWind from/ knotsBaromVisibWave heightAir tempDewpointWater temp
2019-Jul-16 01:00N 37°24' E 011°00'6120.2 290 / 321007.010.8 24.022.6
2019-Jul-15 22:00N 36°54' E 012°06'225 9.0 300 / 261008.010.8 24.021.125.0
2019-Jul-14 21:00N 35°54' E 016°36'25814.3 120 / 101010.010.8 24.021.1
2019-Jul-14 03:00N 36°00' E 021°54'12712.7 300 / 181006.010.8 23.021.6
2019-Jul-13 17:00N 36°12' E 024°30'11 0.7 210 / 81010.027.0 25.022.2
2019-Jul-13 00:00N 36°18' E 024°42'43 8.6 240 / 81012.010.8 23.021.6
2019-Jul-12 19:00N 37°00' E 024°54'638.5 290 / 51012.010.8 24.021.1
2019-Jul-12 18:49N 37°06' E 024°56'3 9.1
2019-Jul-12 18:30N 37°09' E 024°58'5 9.6
2019-Jul-12 18:00N 37°13' E 025°01'5 9.5
2019-Jul-12 17:28N 37°17' E 025°04'4 9.4
2019-Jul-12 17:00N 37°21' E 025°06'5 9.5
2019-Jul-12 16:30N 37°25' E 025°09'4 9.1
2019-Jul-12 16:00N 37°28' E 025°14'4 8.2
2019-Jul-12 15:30N 37°27' E 025°19'0 0.5
2019-Jul-12 14:56N 37°28' E 025°19'0 0.0
2019-Jul-12 14:26N 37°28' E 025°19'0 0.0
2019-Jul-12 13:59N 37°28' E 025°19'0 0.0
2019-Jul-12 13:14N 37°28' E 025°19'0 0.0
2019-Jul-12 12:59N 37°28' E 025°19'0 0.0
2019-Jul-12 12:05N 37°28' E 025°19'0 0.0
2019-Jul-12 11:56N 37°28' E 025°19'0 0.0
2019-Jul-12 11:20N 37°28' E 025°19'0 0.0
2019-Jul-12 10:59N 37°28' E 025°19'0 0.0
2019-Jul-12 10:29N 37°28' E 025°19'0 0.0
2019-Jul-12 09:59N 37°28' E 025°19'0 0.0
2019-Jul-12 09:23N 37°28' E 025°19'0 0.0
2019-Jul-12 08:59N 37°28' E 025°19'0 0.0
2019-Jul-12 08:05N 37°28' E 025°19'0 0.0
2019-Jul-12 07:14N 37°28' E 025°19'0 0.0
2019-Jul-12 06:56N 37°28' E 025°19'0 0.0
2019-Jul-12 06:26N 37°28' E 025°19'0 0.0
2019-Jul-12 05:23N 37°28' E 025°19'0 0.0
2019-Jul-12 04:53N 37°28' E 025°19'0 0.0
2019-Jul-12 04:17N 37°28' E 025°19'0 0.0
2019-Jul-12 03:59N 37°28' E 025°19'0 0.0
2019-Jul-12 03:29N 37°28' E 025°19'0 0.0
2019-Jul-12 03:01N 37°28' E 025°19'2 3.3
2019-Jul-12 02:30N 37°28' E 025°17'1511.9
2019-Jul-12 01:17N 37°20' E 025°02'413.4
2019-Jul-12 01:00N 37°19' E 024°57'612.6
2019-Jul-12 00:30N 37°18' E 024°49'56 8.7
2019-Jul-11 18:01N 37°38' E 023°43'013.6
2019-Jul-11 18:00N 37°38' E 023°43'612.9
2019-Jul-11 17:30N 37°44' E 023°39'612.8
2019-Jul-11 17:00N 37°50' E 023°37'612.2
2019-Jul-11 16:30N 37°56' E 023°37'1 1.9
2019-Jul-11 15:57N 37°56' E 023°38'0 0.0
2019-Jul-11 15:27N 37°56' E 023°38'0 0.0
2019-Jul-11 15:00N 37°56' E 023°38'0 0.0
2019-Jul-11 14:30N 37°56' E 023°38'0 0.0
2019-Jul-11 13:54N 37°56' E 023°38'0 0.0
2019-Jul-11 13:30N 37°56' E 023°38'0 0.0
2019-Jul-11 12:54N 37°56' E 023°38'0 0.0
2019-Jul-11 12:27N 37°56' E 023°38'0 0.0
2019-Jul-11 12:00N 37°56' E 023°38'0 0.0
2019-Jul-11 11:24N 37°56' E 023°38'0 0.0
2019-Jul-11 10:51N 37°56' E 023°38'0 0.0
2019-Jul-11 10:27N 37°56' E 023°38'0 0.0
2019-Jul-11 09:57N 37°56' E 023°38'0 0.0
2019-Jul-11 09:30N 37°56' E 023°38'0 0.0
2019-Jul-11 09:00N 37°56' E 023°38'0 0.0
2019-Jul-11 08:30N 37°56' E 023°38'0 0.0
2019-Jul-11 08:00N 37°56' E 023°38'0 0.0
2019-Jul-11 07:30N 37°56' E 023°38'0 0.0
2019-Jul-11 07:00N 37°56' E 023°38'0 0.0
2019-Jul-11 06:30N 37°56' E 023°38'0 0.0
2019-Jul-11 06:00N 37°56' E 023°38'0 0.0
2019-Jul-11 05:30N 37°56' E 023°38'0 0.0
2019-Jul-11 05:00N 37°56' E 023°38'0 0.0
2019-Jul-11 04:30N 37°56' E 023°38'0 0.0
2019-Jul-11 04:00N 37°56' E 023°38'0 0.0
2019-Jul-11 03:30N 37°56' E 023°38'0 0.0
2019-Jul-11 03:00N 37°56' E 023°38'0 0.0
2019-Jul-11 02:30N 37°56' E 023°38'0 0.2
2019-Jul-11 02:00N 37°56' E 023°38'2 4.4
2019-Jul-11 01:30N 37°55' E 023°36'611.8
2019-Jul-11 01:00N 37°50' E 023°40'714.2
2019-Jul-11 00:31N 37°43' E 023°43'713.9
2019-Jul-11 00:00N 37°36' E 023°46'714.4
2019-Jul-10 23:30N 37°29' E 023°46'714.9
2019-Jul-10 23:00N 37°22' E 023°44'4260.9
2019-Jul-10 23:00N 37°18' E 023°42'3 7.0 270 / 61004.010.8 25.023.6
2019-Jul-10 22:30N 37°15' E 023°43'714.1
2019-Jul-10 22:00N 37°08' E 023°41'714.3
2019-Jul-10 21:31N 37°01' E 023°38'714.7
2019-Jul-10 21:01N 36°54' E 023°35'714.5
2019-Jul-10 20:30N 36°48' E 023°31'714.3
2019-Jul-10 20:00N 36°41' E 023°28'714.3
2019-Jul-10 19:30N 36°34' E 023°25'713.9
2019-Jul-10 19:00N 36°28' E 023°21'38014.0
2019-Jul-09 15:47N 37°54' E 015°37'413.6
2019-Jul-09 15:30N 37°58' E 015°35'714.0
2019-Jul-09 15:01N 38°05' E 015°35'815.0
2019-Jul-09 14:30N 38°13' E 015°36'713.9
2019-Jul-09 14:01N 38°18' E 015°40'815.1
2019-Jul-09 13:31N 38°25' E 015°36'815.1
2019-Jul-09 13:01N 38°32' E 015°32'714.9
2019-Jul-09 12:31N 38°38' E 015°27'714.9
2019-Jul-09 12:01N 38°45' E 015°23'714.9
2019-Jul-09 11:31N 38°51' E 015°18'814.9
2019-Jul-09 10:59N 38°57' E 015°11'6714.6
2019-Jul-09 06:27N 39°44' E 014°10'614.3
2019-Jul-09 06:01N 39°48' E 014°04'714.3
2019-Jul-09 05:30N 39°53' E 013°57'714.2
2019-Jul-09 05:00N 39°58' E 013°50'714.4
2019-Jul-09 04:31N 40°03' E 013°44'714.5
2019-Jul-09 04:00N 40°08' E 013°37'714.6
2019-Jul-09 03:31N 40°14' E 013°31'714.7
2019-Jul-09 03:00N 40°19' E 013°24'714.8
2019-Jul-09 02:30N 40°24' E 013°17'714.8
2019-Jul-09 02:00N 40°29' E 013°10'3201.7
2019-Jul-09 02:00N 40°30' E 013°06'510.1 200 / 71013.010.8 26.024.6
2019-Jul-09 01:30N 40°35' E 013°03'714.6
2019-Jul-09 01:00N 40°40' E 012°56'714.6
2019-Jul-09 00:31N 40°45' E 012°50'714.5
2019-Jul-09 00:01N 40°51' E 012°44'714.6
2019-Jul-08 23:30N 40°56' E 012°38'714.6
2019-Jul-08 23:00N 41°02' E 012°32'714.6
2019-Jul-08 22:30N 41°08' E 012°26'714.7
2019-Jul-08 22:00N 41°14' E 012°21'1014.7
2019-Jul-08 21:19N 41°22' E 012°12'3015.0
2019-Jul-08 19:18N 41°48' E 011°51'914.6
2019-Jul-08 18:40N 41°56' E 011°46'39 2.3
2019-Jul-08 02:00N 42°00' E 010°54'2 6.5 360 / 51015.010.8 25.023.6
2019-Jul-08 01:43N 42°01' E 010°53'517.4
2019-Jul-08 01:25N 42°06' E 010°48'1217.5
2019-Jul-08 00:45N 42°15' E 010°39'717.4
2019-Jul-08 00:20N 42°21' E 010°33'2017.2
2019-Jul-07 23:12N 42°36' E 010°17'317.2
2019-Jul-07 23:00N 42°38' E 010°13'917.1
2019-Jul-07 22:30N 42°43' E 010°03'1917.2
2019-Jul-07 21:24N 43°01' E 009°59'1117.3
2019-Jul-07 20:46N 43°12' E 009°54'517.8
2019-Jul-07 20:30N 43°15' E 009°50'917.7
2019-Jul-07 20:00N 43°23' E 009°44'917.5
2019-Jul-07 19:30N 43°32' E 009°45'917.9
2019-Jul-07 19:00N 43°40' E 009°48'917.8
2019-Jul-07 18:30N 43°49' E 009°50'917.8
2019-Jul-07 18:00N 43°58' E 009°52'713.6
2019-Jul-07 17:30N 44°05' E 009°51'2 3.5
2019-Jul-07 17:00N 44°06' E 009°50'0 0.0
2019-Jul-07 16:30N 44°06' E 009°50'0 0.0
2019-Jul-07 16:00N 44°06' E 009°50'0 0.0
2019-Jul-07 15:30N 44°06' E 009°50'0 0.0
2019-Jul-07 15:00N 44°06' E 009°50'0 0.0
2019-Jul-07 14:30N 44°06' E 009°50'0 0.0
2019-Jul-07 14:00N 44°06' E 009°50'0 0.0
2019-Jul-07 13:30N 44°06' E 009°50'0 0.0
2019-Jul-07 13:00N 44°06' E 009°50'0 0.0
2019-Jul-07 12:30N 44°06' E 009°50'0 0.0
2019-Jul-07 12:00N 44°06' E 009°50'0 0.0
2019-Jul-07 11:30N 44°06' E 009°50'0 0.0
2019-Jul-07 11:00N 44°06' E 009°50'0 0.0
2019-Jul-07 10:30N 44°06' E 009°50'0 0.0
2019-Jul-07 10:00N 44°06' E 009°50'0 0.0
2019-Jul-07 09:30N 44°06' E 009°50'0 0.0
2019-Jul-07 09:00N 44°06' E 009°50'0 0.0
2019-Jul-07 08:30N 44°06' E 009°50'0 0.0
2019-Jul-07 08:00N 44°06' E 009°50'0 0.0
2019-Jul-07 07:30N 44°06' E 009°50'0 0.0
2019-Jul-07 07:00N 44°06' E 009°50'0 0.0
2019-Jul-07 06:30N 44°06' E 009°50'0 0.0
2019-Jul-07 06:00N 44°06' E 009°50'0 0.0
2019-Jul-07 05:30N 44°06' E 009°50'0 0.0
2019-Jul-07 05:00N 44°06' E 009°50'0 0.1
2019-Jul-07 04:30N 44°06' E 009°50'4 7.7
2019-Jul-07 04:00N 44°03' E 009°52'5 9.5
2019-Jul-07 03:30N 43°59' E 009°55'612.6
2019-Jul-07 03:00N 43°57' E 009°47'1313.1
2019-Jul-07 02:00N 43°52' E 009°30'713.1
2019-Jul-07 01:30N 43°50' E 009°22'713.0
2019-Jul-07 01:00N 43°48' E 009°13'713.2
2019-Jul-07 00:30N 43°46' E 009°04'713.2
2019-Jul-07 00:00N 43°44' E 008°55'713.2
2019-Jul-06 23:30N 43°42' E 008°47'713.3
2019-Jul-06 23:00N 43°41' E 008°38'713.2
2019-Jul-06 22:30N 43°39' E 008°29'913.1
2019-Jul-06 21:47N 43°37' E 008°16'413.0
2019-Jul-06 21:30N 43°36' E 008°11'612.9
2019-Jul-06 21:00N 43°34' E 008°03'612.9
2019-Jul-06 20:30N 43°33' E 007°54'612.8
2019-Jul-06 20:00N 43°31' E 007°46'612.6
2019-Jul-06 19:30N 43°29' E 007°37'612.8
2019-Jul-06 19:00N 43°29' E 007°28'713.3
2019-Jul-06 18:30N 43°29' E 007°19'713.5
2019-Jul-06 18:00N 43°29' E 007°10'713.4
2019-Jul-06 17:30N 43°30' E 007°01'2 4.4
2019-Jul-06 17:00N 43°32' E 007°01'0 0.2
2019-Jul-06 16:28N 43°32' E 007°01'0 0.0
2019-Jul-06 15:58N 43°32' E 007°01'0 0.0
2019-Jul-06 15:28N 43°32' E 007°01'0 0.0
2019-Jul-06 14:58N 43°32' E 007°01'0 0.0
2019-Jul-06 14:28N 43°32' E 007°01'0 0.0
2019-Jul-06 13:58N 43°32' E 007°01'0 0.0
2019-Jul-06 13:28N 43°32' E 007°01'0 0.0
2019-Jul-06 12:58N 43°32' E 007°01'0 0.0
2019-Jul-06 12:28N 43°32' E 007°01'0 0.0
2019-Jul-06 11:58N 43°32' E 007°01'0 0.1
2019-Jul-06 11:25N 43°32' E 007°01'0 0.0
2019-Jul-06 10:58N 43°32' E 007°01'0 0.0
2019-Jul-06 10:28N 43°32' E 007°01'0 0.1
2019-Jul-06 09:58N 43°32' E 007°01'0 0.1
2019-Jul-06 09:28N 43°32' E 007°01'0 0.0
2019-Jul-06 08:58N 43°32' E 007°01'0 0.0
2019-Jul-06 08:25N 43°32' E 007°01'0 0.0
2019-Jul-06 07:58N 43°32' E 007°01'0 0.1
2019-Jul-06 07:25N 43°32' E 007°01'0 0.0
2019-Jul-06 06:58N 43°32' E 007°01'0 0.0
2019-Jul-06 06:28N 43°32' E 007°01'0 0.1
2019-Jul-06 05:58N 43°32' E 007°01'3 5.8
2019-Jul-06 05:30N 43°29' E 006°60'918.9
2019-Jul-06 05:01N 43°21' E 006°55'1020.4
2019-Jul-06 04:31N 43°12' E 006°48'1020.7
2019-Jul-06 04:00N 43°04' E 006°38'1020.4
2019-Jul-06 03:30N 42°58' E 006°27'1620.6
2019-Jul-06 02:44N 42°50' E 006°09'520.6
2019-Jul-06 02:30N 42°46' E 006°04'  

Dump ship's entire track history